Time;durP1;ratioP1;P1;durP2;ratioP2;P2;SDS_P1;SDS_P2;PMS_P1;PMS_P2;Temp;Humidity;BMP_temperature;BMP_pressure;BME280_temperature;BME280_humidity;BME280_pressure;Samples;Min_cycle;Max_cycle;Signal;HPM_P1;HPM_P2
2022/03/31 00:01:03;;;;;;;2.03;1.23;;;3.80;99.90;;;;;;5050268;28;20060;-84
2022/03/31 00:03:29;;;;;;;2.83;1.35;;;3.80;99.90;;;;;;5040232;28;20036;-84
2022/03/31 00:05:55;;;;;;;3.05;1.40;;;3.80;99.90;;;;;;5070631;28;20336;-83
2022/03/31 00:08:23;;;;;;;4.30;1.40;;;3.80;99.90;;;;;;5056224;28;20048;-84
2022/03/31 00:11:01;;;;;;;3.97;1.60;;;3.90;99.90;;;;;;5053492;28;20110;-84
2022/03/31 00:13:28;;;;;;;5.82;1.20;;;3.90;99.90;;;;;;5040532;28;20036;-84
2022/03/31 00:15:58;;;;;;;2.92;1.00;;;3.90;99.90;;;;;;5034601;28;20033;-84
2022/03/31 00:18:30;;;;;;;2.80;1.10;;;3.90;99.90;;;;;;5038977;28;20112;-83
2022/03/31 00:34:25;;;;;;;2.08;0.80;;;3.80;99.90;;;;;;5055730;28;20462;-84
2022/03/31 00:36:51;;;;;;;2.70;1.02;;;3.70;99.90;;;;;;5052942;28;20032;-84
2022/03/31 00:39:31;;;;;;;2.13;0.90;;;3.70;99.90;;;;;;5054645;28;20036;-84
2022/03/31 00:41:59;;;;;;;1.95;1.00;;;3.60;99.90;;;;;;5035898;28;20112;-84
2022/03/31 00:44:25;;;;;;;4.47;1.05;;;3.60;99.90;;;;;;5052882;28;20040;-84
2022/03/31 00:46:58;;;;;;;3.25;1.13;;;3.50;1.00;;;;;;5033871;28;20105;-84
2022/03/31 00:49:26;;;;;;;2.45;1.20;;;3.50;1.00;;;;;;5051522;28;20098;-84
2022/03/31 00:51:58;;;;;;;2.78;1.40;;;3.50;1.00;;;;;;5051915;28;20302;-84
2022/03/31 00:54:27;;;;;;;4.25;1.15;;;3.50;1.00;;;;;;5052185;28;20051;-84
2022/03/31 00:57:04;;;;;;;4.07;1.17;;;3.50;18.40;;;;;;5064918;28;20040;-84
2022/03/31 00:59:32;;;;;;;4.88;1.50;;;3.50;99.90;;;;;;5053629;28;20141;-84
2022/03/31 01:01:59;;;;;;;4.07;1.40;;;3.40;99.90;;;;;;5036424;28;20614;-84
2022/03/31 01:04:30;;;;;;;4.28;1.20;;;3.40;99.90;;;;;;5036645;28;20506;-84
2022/03/31 01:07:02;;;;;;;5.72;1.17;;;3.40;99.90;;;;;;5034730;28;20044;-84
2022/03/31 01:09:29;;;;;;;3.95;1.10;;;3.30;99.90;;;;;;5070236;28;20051;-84
2022/03/31 01:11:55;;;;;;;2.28;0.90;;;3.30;99.90;;;;;;5053790;28;20075;-84
2022/03/31 01:14:21;;;;;;;5.68;1.52;;;3.20;99.90;;;;;;5072594;28;20423;-84
2022/03/31 01:16:50;;;;;;;4.30;1.50;;;3.20;99.90;;;;;;5040015;28;20358;-83
2022/03/31 01:19:18;;;;;;;5.53;1.50;;;3.20;99.90;;;;;;5054439;28;20028;-84
2022/03/31 01:21:47;;;;;;;5.40;1.20;;;3.30;99.90;;;;;;5061585;28;20041;-84
2022/03/31 01:24:18;;;;;;;2.05;1.20;;;3.30;99.90;;;;;;5038879;28;20040;-84
2022/03/31 01:26:49;;;;;;;4.93;1.20;;;3.30;1.00;;;;;;5053076;28;20692;-84
2022/03/31 01:29:15;;;;;;;4.47;1.20;;;3.30;99.90;;;;;;5034750;28;20143;-85
2022/03/31 01:31:40;;;;;;;2.63;1.27;;;3.30;1.00;;;;;;5037075;28;20045;-84
2022/03/31 01:34:09;;;;;;;5.78;1.70;;;3.30;1.00;;;;;;5048275;28;20133;-84
2022/03/31 01:36:42;;;;;;;4.50;1.90;;;3.40;99.90;;;;;;5049054;28;20041;-85
2022/03/31 01:39:20;;;;;;;5.38;1.67;;;3.40;99.90;;;;;;5038830;28;20052;-84
2022/03/31 01:42:00;;;;;;;3.97;1.83;;;3.40;1.00;;;;;;5064882;28;20040;-84
2022/03/31 01:44:27;;;;;;;4.15;1.90;;;3.30;1.00;;;;;;5053738;28;20043;-84
2022/03/31 01:46:59;;;;;;;3.00;1.65;;;3.20;33.80;;;;;;5035443;28;20105;-83
2022/03/31 01:49:25;;;;;;;5.13;2.08;;;3.30;47.10;;;;;;5062075;28;20399;-84
2022/03/31 01:51:56;;;;;;;3.95;2.17;;;3.20;99.90;;;;;;5051987;28;20097;-84
2022/03/31 01:54:22;;;;;;;6.90;3.22;;;3.10;99.90;;;;;;5063512;28;20075;-83
2022/03/31 01:57:02;;;;;;;3.78;2.63;;;3.20;99.90;;;;;;5054095;28;20429;-83
2022/03/31 01:59:36;;;;;;;5.80;3.22;;;3.10;99.90;;;;;;5055038;28;20075;-83
2022/03/31 02:02:14;;;;;;;7.18;3.45;;;3.10;99.90;;;;;;5036542;28;20115;-83
2022/03/31 02:04:43;;;;;;;4.80;3.00;;;3.30;99.90;;;;;;5055571;28;20072;-83
2022/03/31 02:07:10;;;;;;;5.57;3.22;;;3.20;99.90;;;;;;5051322;28;20132;-82
2022/03/31 02:09:36;;;;;;;5.93;3.90;;;3.30;99.90;;;;;;5035539;28;20048;-83
2022/03/31 02:12:03;;;;;;;8.52;3.83;;;3.20;99.90;;;;;;5036538;28;20447;-83
2022/03/31 02:14:29;;;;;;;6.90;3.95;;;3.10;99.90;;;;;;5063800;28;20171;-83
2022/03/31 02:16:58;;;;;;;7.53;3.90;;;3.20;99.90;;;;;;5036432;28;20132;-83
2022/03/31 02:19:30;;;;;;;6.95;4.38;;;3.20;99.90;;;;;;5062103;28;20396;-83
2022/03/31 02:22:01;;;;;;;;;;;3.20;99.90;;;;;;5033465;28;20151;-83
2022/03/31 02:24:27;;;;;;;7.10;4.28;;;3.30;99.90;;;;;;5051332;28;19935;-83
2022/03/31 02:27:04;;;;;;;7.18;4.50;;;3.30;99.90;;;;;;5047735;28;20044;-83
2022/03/31 02:29:31;;;;;;;8.00;5.05;;;3.40;99.90;;;;;;5055277;28;20037;-83
2022/03/31 02:31:59;;;;;;;7.95;4.75;;;3.40;99.90;;;;;;5045827;28;20056;-82
2022/03/31 02:34:28;;;;;;;7.00;4.70;;;3.30;99.90;;;;;;5052456;28;20440;-83
2022/03/31 02:37:00;;;;;;;6.70;4.57;;;3.30;99.90;;;;;;5035181;28;20108;-82
2022/03/31 02:39:34;;;;;;;7.93;5.57;;;3.30;99.90;;;;;;5064732;28;20058;-82
2022/03/31 02:42:03;;;;;;;7.63;5.45;;;3.30;99.90;;;;;;5052825;28;20120;-83
2022/03/31 02:44:29;;;;;;;10.88;6.40;;;3.30;99.90;;;;;;5035869;28;20251;-83
2022/03/31 02:46:57;;;;;;;9.30;6.53;;;3.30;99.90;;;;;;5037744;28;20098;-83
2022/03/31 02:49:23;;;;;;;9.60;6.55;;;3.30;99.90;;;;;;5064044;28;20328;-82
2022/03/31 02:51:54;;;;;;;8.15;6.22;;;3.40;99.90;;;;;;5052593;28;20308;-83
2022/03/31 02:57:12;;;;;;;9.67;6.53;;;3.30;99.90;;;;;;5052309;28;20491;-82
2022/03/31 02:59:38;;;;;;;8.98;6.65;;;3.40;99.90;;;;;;5055835;28;20063;-82
2022/03/31 03:02:07;;;;;;;9.18;6.47;;;3.30;99.90;;;;;;5047663;28;20037;-82
2022/03/31 03:04:34;;;;;;;8.30;7.03;;;3.40;99.90;;;;;;5047492;28;20094;-82
2022/03/31 03:07:03;;;;;;;8.82;6.97;;;3.30;99.90;;;;;;5057341;28;20151;-82
2022/03/31 03:09:31;;;;;;;11.65;6.38;;;3.40;99.90;;;;;;5046685;28;20040;-82
2022/03/31 03:12:00;;;;;;;7.15;5.68;;;3.30;99.90;;;;;;5048194;28;20411;-82
2022/03/31 03:14:25;;;;;;;8.98;6.38;;;3.30;99.90;;;;;;5054189;28;20166;-82
2022/03/31 03:16:54;;;;;;;6.95;5.78;;;3.20;99.90;;;;;;5056961;28;20531;-82
2022/03/31 03:19:19;;;;;;;7.57;5.68;;;3.30;99.90;;;;;;5049195;28;22186;-82
2022/03/31 03:21:45;;;;;;;6.70;5.35;;;3.30;99.90;;;;;;5055005;28;20036;-82
2022/03/31 03:24:11;;;;;;;8.50;6.10;;;3.20;99.90;;;;;;5044891;28;20068;-81
2022/03/31 03:26:37;;;;;;;8.40;6.15;;;3.10;99.90;;;;;;5057155;28;20116;-82
2022/03/31 03:29:05;;;;;;;7.25;5.65;;;3.20;99.90;;;;;;5057308;28;20279;-82
2022/03/31 03:31:30;;;;;;;8.57;5.88;;;3.20;99.90;;;;;;5054547;28;20163;-82
2022/03/31 03:33:56;;;;;;;9.25;6.05;;;3.10;99.90;;;;;;5057757;28;20127;-82
2022/03/31 03:36:40;;;;;;;8.98;7.10;;;3.10;99.90;;;;;;5053189;28;20120;-81
2022/03/31 03:39:06;;;;;;;9.23;6.47;;;3.00;99.90;;;;;;5055582;28;20037;-82
2022/03/31 03:41:32;;;;;;;8.73;6.50;;;3.10;99.90;;;;;;5039154;28;20499;-81
2022/03/31 03:44:00;;;;;;;8.35;6.60;;;3.00;99.90;;;;;;5037997;28;20553;-82
2022/03/31 03:46:26;;;;;;;9.00;6.22;;;3.00;99.90;;;;;;5054923;28;20064;-81
2022/03/31 03:48:57;;;;;;;9.02;6.38;;;3.00;99.90;;;;;;5050771;28;20041;-81
2022/03/31 03:51:30;;;;;;;7.50;5.90;;;3.00;99.90;;;;;;5051548;28;20052;-81
2022/03/31 03:53:56;;;;;;;7.82;6.97;;;3.00;99.90;;;;;;5039344;28;20098;-82
2022/03/31 03:56:23;;;;;;;8.02;6.75;;;2.80;99.90;;;;;;5038941;28;20139;-81
2022/03/31 03:58:57;;;;;;;8.50;6.72;;;2.90;99.90;;;;;;5056266;28;20676;-81
2022/03/31 04:01:29;;;;;;;7.82;6.25;;;2.80;99.90;;;;;;5048835;28;20465;-81
2022/03/31 04:03:58;;;;;;;8.45;7.55;;;2.90;99.90;;;;;;5060728;28;20041;-81
2022/03/31 04:06:29;;;;;;;8.30;7.22;;;2.90;99.90;;;;;;5039665;28;20053;-82
2022/03/31 04:08:55;;;;;;;9.55;8.15;;;2.80;99.90;;;;;;5041146;28;20818;-81
2022/03/31 04:11:20;;;;;;;9.15;8.00;;;2.70;99.90;;;;;;5055319;28;20525;-82
2022/03/31 04:13:46;;;;;;;9.32;8.32;;;2.90;99.90;;;;;;5057950;28;20086;-82
2022/03/31 04:16:12;;;;;;;8.93;7.57;;;2.80;99.90;;;;;;5053175;28;20061;-82
2022/03/31 04:18:41;;;;;;;10.90;8.02;;;2.90;99.90;;;;;;5035414;28;20129;-81
2022/03/31 04:21:07;;;;;;;11.73;8.40;;;2.90;99.90;;;;;;5038101;28;20571;-82
2022/03/31 04:23:35;;;;;;;11.80;9.75;;;2.90;99.90;;;;;;5054619;28;20066;-81
2022/03/31 04:26:01;;;;;;;11.60;9.38;;;2.90;99.90;;;;;;5038079;28;20032;-81
2022/03/31 04:28:27;;;;;;;9.70;8.25;;;2.90;99.90;;;;;;5040242;28;20062;-81
2022/03/31 04:30:59;;;;;;;11.70;8.93;;;2.90;99.90;;;;;;5050143;28;20072;-81
2022/03/31 04:33:45;;;;;;;10.32;8.65;;;2.90;99.90;;;;;;5035186;28;20361;-81
2022/03/31 04:36:10;;;;;;;10.52;8.35;;;3.00;99.90;;;;;;5052670;28;20036;-81
2022/03/31 04:38:36;;;;;;;11.52;9.85;;;2.80;99.90;;;;;;5053751;28;20036;-81
2022/03/31 04:41:04;;;;;;;11.52;9.45;;;2.80;99.90;;;;;;5053884;28;20037;-81
2022/03/31 04:43:30;;;;;;;13.13;9.57;;;2.80;99.90;;;;;;5057186;28;20505;-81
2022/03/31 04:46:02;;;;;;;11.93;9.30;;;2.90;99.90;;;;;;5052359;28;20039;-81
2022/03/31 04:48:36;;;;;;;11.68;9.07;;;2.80;99.90;;;;;;5057473;28;20048;-81
2022/03/31 04:51:02;;;;;;;;;;;2.90;99.90;;;;;;5040382;28;20036;-81
2022/03/31 04:53:28;;;;;;;11.88;9.05;;;2.90;99.90;;;;;;5039055;28;19924;-81
2022/03/31 04:55:53;;;;;;;10.85;9.38;;;2.80;99.90;;;;;;5038293;28;20399;-80
2022/03/31 04:58:19;;;;;;;11.13;8.73;;;2.90;99.90;;;;;;5054457;28;20115;-80
2022/03/31 05:00:45;;;;;;;10.55;8.70;;;2.80;99.90;;;;;;5036860;28;20480;-80
2022/03/31 05:03:16;;;;;;;10.45;9.00;;;2.90;99.90;;;;;;5055767;28;20097;-81
2022/03/31 05:05:43;;;;;;;9.75;8.30;;;2.80;99.90;;;;;;5050128;28;20055;-80
2022/03/31 05:08:10;;;;;;;8.75;7.20;;;2.90;99.90;;;;;;5068860;28;20532;-81
2022/03/31 05:10:38;;;;;;;9.27;7.22;;;3.00;99.90;;;;;;5052437;28;20119;-81
2022/03/31 05:13:04;;;;;;;7.30;6.55;;;2.70;99.90;;;;;;5042063;28;20047;-81
2022/03/31 05:15:30;;;;;;;8.02;6.80;;;2.80;99.90;;;;;;5056616;28;20032;-81
2022/03/31 05:17:55;;;;;;;7.10;6.40;;;2.80;99.90;;;;;;5051937;28;20040;-80
2022/03/31 05:20:22;;;;;;;8.30;6.90;;;2.80;99.90;;;;;;5045772;28;20063;-81
2022/03/31 05:22:48;;;;;;;8.73;6.75;;;2.80;99.90;;;;;;5054192;28;20618;-81
2022/03/31 05:25:14;;;;;;;8.10;7.00;;;2.70;99.90;;;;;;5055266;28;20054;-81
2022/03/31 05:27:44;;;;;;;8.93;8.00;;;2.80;99.90;;;;;;5065513;28;20186;-81
2022/03/31 05:30:11;;;;;;;8.65;7.60;;;2.70;99.90;;;;;;5057279;28;20119;-81
2022/03/31 05:32:37;;;;;;;8.90;8.00;;;2.70;99.90;;;;;;5051552;28;20905;-81
2022/03/31 05:35:06;;;;;;;8.48;7.20;;;2.80;99.90;;;;;;5039340;28;20166;-81
2022/03/31 05:37:33;;;;;;;9.35;7.97;;;2.70;99.90;;;;;;5035773;28;20036;-81
2022/03/31 05:40:02;;;;;;;9.43;8.25;;;2.70;99.90;;;;;;5049425;28;20134;-81
2022/03/31 05:42:28;;;;;;;9.15;8.13;;;2.70;99.90;;;;;;5051245;28;20037;-81
2022/03/31 05:44:54;;;;;;;9.52;7.75;;;2.70;99.90;;;;;;5057010;28;20063;-81
2022/03/31 05:47:20;;;;;;;10.90;8.60;;;2.80;99.90;;;;;;5044967;28;20444;-81
2022/03/31 05:49:46;;;;;;;10.57;8.70;;;2.80;99.90;;;;;;5038773;28;20043;-81
2022/03/31 05:52:11;;;;;;;11.93;9.55;;;2.90;99.90;;;;;;5049556;28;20040;-81
2022/03/31 05:54:39;;;;;;;10.98;8.88;;;2.70;99.90;;;;;;5035626;28;20040;-81
2022/03/31 05:57:05;;;;;;;12.30;9.73;;;2.90;99.90;;;;;;5060293;28;20120;-81
2022/03/31 05:59:31;;;;;;;12.30;10.02;;;2.90;99.90;;;;;;5038140;28;20453;-81
2022/03/31 06:01:56;;;;;;;11.40;9.43;;;2.90;99.90;;;;;;5037899;28;20025;-81
2022/03/31 06:04:22;;;;;;;10.35;8.80;;;2.90;99.90;;;;;;5047113;28;20040;-81
2022/03/31 06:06:48;;;;;;;12.70;9.48;;;2.90;99.90;;;;;;5051853;28;20705;-82
2022/03/31 06:09:14;;;;;;;12.23;9.95;;;3.00;99.90;;;;;;5037054;28;20045;-82
2022/03/31 06:11:41;;;;;;;10.40;8.75;;;2.90;99.90;;;;;;5053928;28;20511;-81
2022/03/31 06:14:06;;;;;;;11.13;8.57;;;3.10;99.90;;;;;;5040106;28;20029;-81
2022/03/31 06:16:32;;;;;;;11.80;9.10;;;3.00;99.90;;;;;;5036671;28;20570;-81
2022/03/31 06:19:01;;;;;;;9.00;8.07;;;3.10;99.90;;;;;;5037782;28;20040;-82
2022/03/31 06:21:27;;;;;;;10.30;9.20;;;3.10;99.90;;;;;;5036560;28;20754;-81
2022/03/31 06:23:53;;;;;;;9.88;8.40;;;3.10;99.90;;;;;;5036737;28;20040;-82
2022/03/31 06:26:19;;;;;;;9.27;8.15;;;3.00;99.90;;;;;;5036722;28;20519;-82
2022/03/31 06:28:44;;;;;;;9.35;7.63;;;3.10;99.90;;;;;;5038092;28;20047;-82
2022/03/31 06:31:10;;;;;;;8.98;7.43;;;3.10;99.90;;;;;;5049490;28;20047;-82
2022/03/31 06:33:37;;;;;;;9.43;7.65;;;3.10;99.90;;;;;;5039857;28;20032;-82
2022/03/31 06:36:03;;;;;;;9.73;7.63;;;3.10;99.90;;;;;;5051817;28;20037;-82
2022/03/31 06:38:29;;;;;;;9.10;8.18;;;3.20;99.90;;;;;;5056179;28;20083;-82
2022/03/31 06:41:07;;;;;;;8.68;7.78;;;3.30;99.90;;;;;;5033624;28;20032;-82
2022/03/31 06:43:45;;;;;;;7.40;6.70;;;3.20;99.90;;;;;;5041841;28;20115;-81
2022/03/31 06:46:11;;;;;;;7.95;7.15;;;3.20;99.90;;;;;;5069020;28;20045;-82
2022/03/31 06:48:41;;;;;;;8.00;7.20;;;3.30;99.90;;;;;;5061926;28;20048;-81
2022/03/31 06:51:08;;;;;;;7.25;6.55;;;3.20;99.90;;;;;;5039244;28;20646;-81
2022/03/31 06:53:37;;;;;;;7.40;6.63;;;3.20;99.90;;;;;;5043370;28;20314;-81
2022/03/31 06:56:08;;;;;;;7.45;6.68;;;3.10;99.90;;;;;;5054422;28;20131;-82
2022/03/31 06:58:34;;;;;;;7.70;6.90;;;3.20;99.90;;;;;;5074393;28;20039;-81
2022/03/31 07:01:05;;;;;;;8.05;7.25;;;3.30;99.90;;;;;;5041228;28;20499;-81
2022/03/31 07:03:31;;;;;;;8.07;7.28;;;3.20;99.90;;;;;;5042443;28;20032;-81
2022/03/31 07:05:56;;;;;;;7.75;6.85;;;3.20;99.90;;;;;;5057353;28;20110;-81
2022/03/31 07:08:22;;;;;;;8.40;7.45;;;3.10;99.90;;;;;;5056967;28;20163;-82
2022/03/31 07:10:49;;;;;;;9.27;8.15;;;3.10;99.90;;;;;;5035104;28;20432;-82
2022/03/31 07:13:15;;;;;;;9.27;8.38;;;3.20;99.90;;;;;;5058013;28;20055;-81
2022/03/31 07:15:41;;;;;;;9.23;8.27;;;3.10;99.90;;;;;;5070804;28;20330;-82
2022/03/31 07:18:07;;;;;;;10.68;9.05;;;3.10;99.90;;;;;;5072054;28;20480;-81
2022/03/31 07:20:34;;;;;;;9.95;8.85;;;3.30;99.90;;;;;;5047659;28;20376;-81
2022/03/31 07:23:07;;;;;;;9.85;8.73;;;3.40;99.90;;;;;;5055210;28;20036;-81
2022/03/31 07:25:34;;;;;;;9.85;8.70;;;3.40;99.90;;;;;;5059392;28;20044;-81
2022/03/31 07:28:01;;;;;;;10.18;8.57;;;3.40;99.90;;;;;;5039919;28;20115;-82
2022/03/31 07:30:26;;;;;;;10.63;9.00;;;3.40;99.90;;;;;;5036999;28;20033;-81
2022/03/31 07:32:56;;;;;;;10.40;8.60;;;3.30;99.90;;;;;;5039031;28;20040;-81
2022/03/31 07:35:31;;;;;;;9.10;7.97;;;3.50;99.90;;;;;;5039553;28;20534;-81
2022/03/31 07:38:03;;;;;;;9.65;8.65;;;3.60;99.90;;;;;;5056479;28;20036;-81
2022/03/31 07:40:31;;;;;;;10.02;8.05;;;3.50;99.90;;;;;;5040949;28;20033;-82
2022/03/31 07:42:57;;;;;;;9.30;8.35;;;3.60;99.90;;;;;;5040010;28;20116;-81
2022/03/31 07:45:24;;;;;;;9.60;8.25;;;3.50;99.90;;;;;;5058793;28;20127;-81
2022/03/31 07:47:50;;;;;;;10.07;8.57;;;3.60;99.90;;;;;;5039514;28;20037;-81
2022/03/31 07:50:18;;;;;;;9.68;8.68;;;3.60;99.90;;;;;;5055908;28;20036;-80
2022/03/31 07:52:44;;;;;;;9.85;8.85;;;3.50;99.90;;;;;;5041198;28;20033;-81
2022/03/31 07:55:19;;;;;;;9.88;8.88;;;3.60;99.90;;;;;;5037962;28;20352;-81
2022/03/31 07:57:45;;;;;;;;;;;3.60;99.90;;;;;;5040998;28;20029;-81
2022/03/31 08:00:15;;;;;;;8.77;7.88;;;3.40;99.90;;;;;;5031726;28;19920;-81
2022/03/31 08:02:43;;;;;;;8.75;7.78;;;3.40;99.90;;;;;;5037251;28;20046;-81
2022/03/31 08:05:10;;;;;;;8.65;7.78;;;3.50;99.90;;;;;;5040055;28;20424;-80
2022/03/31 08:07:39;;;;;;;9.75;8.55;;;3.60;99.90;;;;;;5052820;28;20089;-81
2022/03/31 08:10:11;;;;;;;10.38;7.45;;;3.50;99.90;;;;;;5056790;28;20147;-81
2022/03/31 08:12:40;;;;;;;8.27;7.40;;;3.60;99.90;;;;;;5064544;28;20133;-81
2022/03/31 08:15:07;;;;;;;8.80;7.90;;;3.60;99.90;;;;;;5041703;28;20846;-81
2022/03/31 08:17:33;;;;;;;8.50;7.63;;;3.70;99.90;;;;;;5039416;28;20052;-81
2022/03/31 08:20:00;;;;;;;7.88;7.07;;;3.70;99.90;;;;;;5060845;28;20029;-81
2022/03/31 08:22:26;;;;;;;8.35;6.82;;;3.70;99.90;;;;;;5052269;28;20040;-81
2022/03/31 08:24:53;;;;;;;6.20;5.60;;;3.60;99.90;;;;;;5061146;28;20502;-81
2022/03/31 08:27:19;;;;;;;5.85;5.25;;;3.60;99.90;;;;;;5057113;28;20045;-81
2022/03/31 08:29:51;;;;;;;5.72;4.65;;;3.60;99.90;;;;;;5041105;28;20463;-81
2022/03/31 08:32:19;;;;;;;5.90;5.15;;;3.50;99.90;;;;;;5039908;28;20159;-80
2022/03/31 08:34:45;;;;;;;5.10;4.60;;;3.60;99.90;;;;;;5053606;28;20147;-81
2022/03/31 08:37:11;;;;;;;4.80;4.25;;;3.40;99.90;;;;;;5053133;28;20025;-81
2022/03/31 08:39:37;;;;;;;4.80;4.30;;;3.40;99.90;;;;;;5043091;28;20032;-80
2022/03/31 08:42:07;;;;;;;4.90;4.30;;;3.40;99.90;;;;;;5037725;28;20656;-81
2022/03/31 08:44:37;;;;;;;5.63;4.90;;;3.30;99.90;;;;;;5040592;28;20170;-80
2022/03/31 08:47:02;;;;;;;5.70;4.70;;;3.30;99.90;;;;;;5040481;28;20221;-80
2022/03/31 08:49:29;;;;;;;5.32;4.80;;;3.10;99.90;;;;;;5058934;28;20162;-80
2022/03/31 08:51:55;;;;;;;5.55;4.78;;;3.10;99.90;;;;;;5048891;28;20032;-79
2022/03/31 08:54:24;;;;;;;5.82;5.00;;;3.20;99.90;;;;;;5039929;28;20113;-81
2022/03/31 08:56:53;;;;;;;6.38;4.65;;;3.10;99.90;;;;;;5055644;28;20483;-80
2022/03/31 08:59:19;;;;;;;6.55;5.07;;;3.10;99.90;;;;;;5055441;28;20044;-80
2022/03/31 09:01:51;;;;;;;6.43;5.72;;;3.20;99.90;;;;;;5054753;28;20025;-80
2022/03/31 09:04:26;;;;;;;7.13;5.78;;;3.10;99.90;;;;;;5072446;28;20044;-80
2022/03/31 09:07:06;;;;;;;8.10;6.35;;;2.90;99.90;;;;;;5039180;28;20044;-80
2022/03/31 09:09:46;;;;;;;8.07;6.25;;;2.90;99.90;;;;;;5055519;28;20075;-80
2022/03/31 09:12:17;;;;;;;8.10;6.70;;;2.90;99.90;;;;;;5073003;28;20085;-80
2022/03/31 09:14:43;;;;;;;8.43;7.03;;;2.80;99.90;;;;;;5038937;28;20044;-80
2022/03/31 09:17:13;;;;;;;8.50;6.75;;;2.90;99.90;;;;;;5038016;28;20318;-80
2022/03/31 09:19:39;;;;;;;9.95;8.07;;;2.70;99.90;;;;;;5054592;28;20365;-81
2022/03/31 09:22:06;;;;;;;10.82;8.63;;;2.80;99.90;;;;;;5039075;28;20135;-80
2022/03/31 09:24:32;;;;;;;11.85;9.07;;;2.60;99.90;;;;;;5040520;28;20116;-80
2022/03/31 09:26:59;;;;;;;12.15;9.48;;;2.70;99.90;;;;;;5036767;28;20121;-80
2022/03/31 09:29:27;;;;;;;12.95;9.70;;;2.70;99.90;;;;;;5039949;28;20101;-81
2022/03/31 09:32:07;;;;;;;14.48;10.95;;;2.80;99.90;;;;;;5049866;28;20059;-80
2022/03/31 09:34:48;;;;;;;15.13;11.43;;;2.80;99.90;;;;;;5057433;28;20496;-79
2022/03/31 09:37:16;;;;;;;17.45;12.38;;;2.60;99.90;;;;;;5054551;28;20048;-80
2022/03/31 09:39:53;;;;;;;16.35;12.05;;;2.60;99.90;;;;;;5039019;28;20108;-80
2022/03/31 09:42:19;;;;;;;16.42;11.52;;;2.60;99.90;;;;;;5036257;28;20697;-80
2022/03/31 09:44:56;;;;;;;13.95;10.43;;;2.70;99.90;;;;;;5039814;28;20119;-80
2022/03/31 09:47:22;;;;;;;13.63;9.93;;;2.70;99.90;;;;;;5036916;28;20041;-80
2022/03/31 09:49:56;;;;;;;12.60;8.48;;;2.60;99.90;;;;;;5068704;28;20049;-80
2022/03/31 09:52:22;;;;;;;;;;;2.50;99.90;;;;;;5071041;28;20097;-80
2022/03/31 09:54:49;;;;;;;8.48;6.93;;;2.70;99.90;;;;;;5058529;28;19963;-81
2022/03/31 09:57:21;;;;;;;8.43;6.30;;;2.60;99.90;;;;;;5053196;28;20041;-80
2022/03/31 09:59:57;;;;;;;7.53;6.22;;;2.50;99.90;;;;;;5053498;28;20496;-80
2022/03/31 10:02:26;;;;;;;7.22;5.95;;;2.50;99.90;;;;;;5073042;28;20667;-80
2022/03/31 10:04:54;;;;;;;7.70;6.10;;;2.40;99.90;;;;;;5038045;28;20924;-80
2022/03/31 10:07:22;;;;;;;6.50;5.60;;;2.40;99.90;;;;;;5028433;28;20049;-80
2022/03/31 10:09:49;;;;;;;6.97;5.78;;;2.40;99.90;;;;;;5046265;28;20085;-79
2022/03/31 10:12:50;;;;;;;9.65;7.32;;;2.50;99.90;;;;;;5057895;28;20036;-80
2022/03/31 10:18:23;;;;;;;12.68;9.32;;;2.40;99.90;;;;;;5048335;28;20082;-78
2022/03/31 10:20:56;;;;;;;12.30;9.57;;;2.30;99.90;;;;;;5046227;28;20032;-79
2022/03/31 10:26:25;;;;;;;13.48;9.02;;;2.50;99.90;;;;;;5061453;28;20131;-79
2022/03/31 10:29:08;;;;;;;10.73;8.40;;;2.40;99.90;;;;;;5043296;28;20589;-79
2022/03/31 10:31:46;;;;;;;11.10;7.97;;;2.40;99.90;;;;;;5062578;28;20045;-79
2022/03/31 10:34:16;;;;;;;11.65;8.18;;;2.50;99.90;;;;;;5061929;28;20090;-80
2022/03/31 10:36:50;;;;;;;12.10;8.65;;;2.30;99.90;;;;;;5044011;28;20036;-80
2022/03/31 10:39:25;;;;;;;11.30;8.43;;;2.50;99.90;;;;;;5044208;28;20079;-80
2022/03/31 10:42:09;;;;;;;11.45;8.30;;;2.50;99.90;;;;;;5057769;28;20036;-80
2022/03/31 10:44:35;;;;;;;10.82;8.35;;;2.40;99.90;;;;;;5058592;28;20047;-80
2022/03/31 10:47:07;;;;;;;10.90;8.15;;;2.60;99.90;;;;;;5042576;28;20024;-80
2022/03/31 10:49:40;;;;;;;9.25;7.95;;;2.60;99.90;;;;;;5048765;28;20353;-80
2022/03/31 10:52:19;;;;;;;9.43;6.60;;;2.50;99.90;;;;;;5044237;28;20118;-81
2022/03/31 10:54:45;;;;;;;8.52;7.03;;;2.60;99.90;;;;;;5076068;28;20127;-80
2022/03/31 10:57:13;;;;;;;7.70;6.38;;;2.60;99.90;;;;;;5047923;28;20059;-80
2022/03/31 10:59:41;;;;;;;7.80;5.72;;;2.60;99.90;;;;;;5056614;28;20056;-80
2022/03/31 11:02:21;;;;;;;5.95;5.25;;;2.60;99.90;;;;;;5044776;28;20567;-80
2022/03/31 11:04:55;;;;;;;6.03;5.38;;;2.70;99.90;;;;;;5043829;28;20051;-81
2022/03/31 11:07:26;;;;;;;5.70;5.10;;;2.90;99.90;;;;;;5042870;28;20100;-81
2022/03/31 11:10:15;;;;;;;5.20;4.70;;;2.80;99.90;;;;;;5060305;28;20067;-81
2022/03/31 11:12:42;;;;;;;6.03;5.25;;;2.80;99.90;;;;;;5063439;28;20048;-80
2022/03/31 11:15:09;;;;;;;6.30;4.55;;;2.70;99.90;;;;;;5064789;28;20044;-81
2022/03/31 11:17:36;;;;;;;6.05;4.57;;;2.60;99.90;;;;;;5044719;28;20059;-81
2022/03/31 11:20:29;;;;;;;5.60;4.82;;;2.70;99.90;;;;;;5040257;28;20036;-80
2022/03/31 11:23:06;;;;;;;;;;;2.50;99.90;;;;;;5042088;28;20037;-81
2022/03/31 11:25:33;;;;;;;6.00;4.68;;;2.60;99.90;;;;;;5034448;28;20340;-80
2022/03/31 11:28:10;;;;;;;5.63;4.50;;;2.60;99.90;;;;;;5041301;28;20071;-80
2022/03/31 11:30:48;;;;;;;5.03;4.53;;;2.40;99.90;;;;;;5070369;28;20105;-81
2022/03/31 11:33:16;;;;;;;5.40;4.70;;;2.40;99.90;;;;;;5038108;28;20079;-81
2022/03/31 11:35:43;;;;;;;5.00;4.47;;;2.40;99.90;;;;;;5041232;28;20040;-81
2022/03/31 11:38:17;;;;;;;5.13;4.63;;;2.20;99.90;;;;;;5040561;28;20033;-81
2022/03/31 11:40:45;;;;;;;5.78;4.72;;;2.20;99.90;;;;;;5055319;28;20177;-82
2022/03/31 11:43:13;;;;;;;5.65;5.10;;;2.30;99.90;;;;;;5042395;28;20041;-81
2022/03/31 11:45:43;;;;;;;5.38;4.88;;;2.10;99.90;;;;;;5046573;28;20049;-81
2022/03/31 11:48:12;;;;;;;5.53;4.75;;;2.30;99.90;;;;;;5056070;28;20056;-80
2022/03/31 11:50:40;;;;;;;5.75;5.15;;;2.20;99.90;;;;;;5039295;28;20249;-80
2022/03/31 11:53:20;;;;;;;6.32;5.28;;;2.10;99.90;;;;;;5046270;28;20037;-80
2022/03/31 11:56:21;;;;;;;6.15;5.53;;;2.10;99.90;;;;;;5044817;28;20127;-80
2022/03/31 11:58:49;;;;;;;6.07;5.47;;;2.00;99.90;;;;;;5040437;28;20053;-80
2022/03/31 12:01:25;;;;;;;6.15;5.45;;;2.10;99.90;;;;;;5061599;28;20072;-80
2022/03/31 12:03:51;;;;;;;6.45;5.78;;;2.00;99.90;;;;;;5057934;28;20111;-80
2022/03/31 12:06:17;;;;;;;6.95;6.15;;;2.10;99.90;;;;;;5070681;28;20617;-81
2022/03/31 12:08:43;;;;;;;7.55;5.90;;;2.10;99.90;;;;;;5042480;28;20123;-80
2022/03/31 12:11:12;;;;;;;8.27;6.38;;;2.00;99.90;;;;;;5055817;28;20553;-80
2022/03/31 12:13:57;;;;;;;7.18;6.35;;;2.10;99.90;;;;;;5054622;28;20060;-80
2022/03/31 12:16:25;;;;;;;8.13;7.22;;;1.80;99.90;;;;;;5041223;28;20066;-80
2022/03/31 12:18:56;;;;;;;8.52;7.15;;;1.90;99.90;;;;;;5040852;28;20064;-80
2022/03/31 12:21:24;;;;;;;7.88;6.97;;;2.00;99.90;;;;;;5052997;28;20040;-80
2022/03/31 12:23:50;;;;;;;8.50;6.85;;;1.90;99.90;;;;;;5035687;28;20041;-80
2022/03/31 12:26:23;;;;;;;7.68;6.88;;;2.00;99.90;;;;;;5054633;28;20441;-80
2022/03/31 12:28:51;;;;;;;8.93;7.47;;;2.10;99.90;;;;;;5040174;28;20041;-80
2022/03/31 12:31:31;;;;;;;9.68;8.10;;;2.00;99.90;;;;;;5051788;28;20415;-80
2022/03/31 12:33:58;;;;;;;10.13;8.57;;;2.10;99.90;;;;;;5076230;28;20371;-80
2022/03/31 12:36:34;;;;;;;9.10;8.02;;;1.90;99.90;;;;;;5038897;28;20200;-81
2022/03/31 12:39:05;;;;;;;10.13;9.05;;;2.00;99.90;;;;;;5072881;28;20037;-80
2022/03/31 12:41:36;;;;;;;10.00;8.88;;;2.00;99.90;;;;;;5059386;28;20040;-79
2022/03/31 12:44:04;;;;;;;12.55;9.70;;;2.00;99.90;;;;;;5039220;28;20064;-81
2022/03/31 12:46:35;;;;;;;12.02;9.40;;;2.10;99.90;;;;;;5039439;28;20095;-80
2022/03/31 12:49:10;;;;;;;12.38;10.52;;;2.10;99.90;;;;;;5065345;28;20390;-81
2022/03/31 12:51:52;;;;;;;13.35;10.90;;;2.10;99.90;;;;;;5039525;28;20060;-81
2022/03/31 12:54:25;;;;;;;13.05;10.38;;;2.10;99.90;;;;;;5056288;28;20056;-80
2022/03/31 12:56:57;;;;;;;12.45;10.50;;;2.10;99.90;;;;;;5052053;28;20040;-80
2022/03/31 12:59:30;;;;;;;13.65;11.05;;;2.20;99.90;;;;;;5035857;28;20492;-81
2022/03/31 13:02:06;;;;;;;12.45;11.13;;;2.20;99.90;;;;;;5035187;28;20110;-81
2022/03/31 13:04:40;;;;;;;14.70;12.23;;;2.20;99.90;;;;;;5042818;28;20056;-82
2022/03/31 13:07:16;;;;;;;14.98;12.27;;;2.20;99.90;;;;;;5040714;28;20048;-82
2022/03/31 13:09:44;;;;;;;15.10;12.77;;;2.30;99.90;;;;;;5053579;28;20365;-81
2022/03/31 13:12:11;;;;;;;15.85;13.55;;;2.20;99.90;;;;;;5050725;28;20094;-82
2022/03/31 13:14:43;;;;;;;15.43;13.38;;;2.20;99.90;;;;;;5053711;28;20306;-81
2022/03/31 13:17:10;;;;;;;16.88;13.77;;;2.20;99.90;;;;;;5052507;28;20048;-82
2022/03/31 13:19:36;;;;;;;15.98;13.40;;;2.30;99.90;;;;;;5060332;28;20048;-82
2022/03/31 13:22:04;;;;;;;16.45;13.43;;;2.50;99.90;;;;;;5056045;28;20527;-81
2022/03/31 13:24:30;;;;;;;19.73;14.82;;;2.30;99.90;;;;;;5038267;28;20036;-82
2022/03/31 13:26:56;;;;;;;18.25;14.40;;;2.30;99.90;;;;;;5038498;28;20065;-82
2022/03/31 13:29:25;;;;;;;18.80;14.90;;;2.40;99.90;;;;;;5039655;28;20579;-82